Accueil
METAR-TAF:

METAR-TAF

Aéroports :

Vérone, Italie

Aéroport de Vérone

latitude: 45-23N, longitude: 010-52E, altitude: 67 m

Observation

Le bulletin a été fait il y a 32 minutes, à 09:50 UTC
Vent 3 kt de ouest/sud-ouest, variant entre sud et ouest
Température 8°C
Humidité 76%
Pression 1011 hPa
Visibilité: 8000 m
Nuages épars à une hauteur de 8000 ft

METAR: LIPX 240950Z 24003KT 190V280 8000 SCT080 08/04 Q1011

Heure: 11:22 (10:22 UTC)

Prévision

Le bulletin a été fait il y a 2 heures et 22 minutes, à 08:00 UTC
Prévision valable du 24 à 09 UTC au 24 à 18 UTC
Vent 8 kt de est
Visibilité: 7000 m
Nuages épars à une hauteur de 2000 ft
Nuages épars à une hauteur de 6000 ft

TAF: LIPX 240800Z 2409/2418 09008KT 7000 SCT020 SCT060

Observations et prévisions météorologiques de plus de 4000 aéroports (messages METAR et TAF).

Les stations disponibles sont représentées par des disques jaunes et rouges sur la carte.

Passer la souris dessus pour voir le nom de la station.

Cliquer dessus pour voir les observations et prévisions météorologiques.

Pour changer de carte: cliquez sur les boutons verts avec une croix noire pour zoomer, sur le bouton vert avec un tiret pour effectuer un zoom arrière, ou sur les flèches vertes pour les cartes adjacentes.


METAR-TAF: